Flight Track Log - Related Links

Times and Time Zones

All times are in EDT time to prevent confusion due to time zone crossing. See the N12JD flight status page for this flight to view local times or setup timezone preferences in your user account.

Time Position Orientation Groundspeed Altitude Reporting Facility
EDT Latitude Longitude Course Direction KTS MPH feet Rate Location/Type
Sun 11:55:50 AM 43.7708 -110.6111 100° East 173 199 11,100  Level Salt Lake Center
Sun 11:56:52 AM 43.8172 -110.5767 28° Northeast 185 213 12,000 968 Climbing Salt Lake Center
Sun 11:57:54 AM 43.8594 -110.5286 39° Northeast 203 234 13,100 1,113 Climbing Salt Lake Center
Sun 11:58:56 AM 43.8633 -110.4367 87° East 199 229 14,300 1,016 Climbing Salt Lake Center
Sun 11:59:58 AM 43.8653 -110.3564 88° East 207 238 15,200 871 Climbing Salt Lake Center
Sun 12:01:00 PM 43.8207 -110.3490 100° East  Level FlightAware Approximate
Sun 12:01:00 PM 43.8681 -110.2744 87° East 210 242 16,100  Level Salt Lake Center
Sun 12:02:02 PM 43.8703 -110.1886 88° East 221 254 16,900 774 Climbing Salt Lake Center
Sun 12:03:04 PM 43.8731 -110.1014 87° East 225 259 17,700 629 Climbing Salt Lake Center
Sun 12:04:06 PM 43.8758 -110.0133 87° East 228 262 18,200 629 Climbing Salt Lake Center
Sun 12:05:08 PM 43.8781 -109.9258 88° East 228 262 19,000 726 Climbing Salt Lake Center
Sun 12:06:10 PM 43.8822 -109.8197 87° East 229 264 19,700 677 Climbing Salt Lake Center
Sun 12:07:12 PM 43.8833 -109.7317 89° East 231 266 20,400 532 Climbing Salt Lake Center
Sun 12:08:14 PM 43.8856 -109.6453 88° East 234 269 20,800 484 Climbing Salt Lake Center
Sun 12:09:16 PM 43.8925 -109.5406 85° East 242 278 21,400 532 Climbing Salt Lake Center
Sun 12:10:18 PM 43.8964 -109.4417 87° East 244 281 21,900 484 Climbing Salt Lake Center
Sun 12:11:20 PM 43.9022 -109.3492 85° East 243 280 22,400 387 Climbing Salt Lake Center
Sun 12:12:22 PM 43.9064 -109.2528 87° East 249 287 22,700 290 Climbing Salt Lake Center
Sun 12:13:24 PM 43.9128 -109.1472 85° East 250 288 23,000 145 Climbing Salt Lake Center
Sun 12:14:26 PM 43.9167 -109.0503 87° East 260 299 23,000  Level Salt Lake Center
Sun 12:15:28 PM 43.9231 -108.9294 86° East 276 318 23,000  Level Salt Lake Center
Sun 12:16:30 PM 43.9272 -108.8233 87° East 278 320 23,000  Level Salt Lake Center
Sun 12:17:32 PM 43.9322 -108.7175 86° East 277 319 23,000  Level Salt Lake Center
Sun 12:18:34 PM 43.9378 -108.6086 86° East 282 325 23,000  Level Salt Lake Center
Sun 12:19:36 PM 43.9422 -108.5011 87° East 282 325 23,000  Level Salt Lake Center
Sun 12:20:38 PM 43.9469 -108.3922 87° East 283 326 23,000  Level Salt Lake Center
Sun 12:21:40 PM 43.9533 -108.2631 86° East 281 323 23,000  Level Salt Lake Center
Sun 12:22:42 PM 43.9572 -108.1525 87° East 286 329 23,000  Level Salt Lake Center
Sun 12:23:44 PM 43.9622 -108.0439 86° East 285 328 23,000  Level Salt Lake Center
Sun 12:24:46 PM 43.9661 -107.9333 87° East 286 329 23,000  Level Salt Lake Center
Sun 12:25:48 PM 43.9711 -107.8264 86° East 280 322 23,000  Level Salt Lake Center
Sun 12:26:50 PM 43.9758 -107.6942 87° East 286 329 23,000  Level Salt Lake Center
Sun 12:27:52 PM 43.9783 -107.5881 88° East 281 323 23,000  Level Salt Lake Center
Sun 12:28:54 PM 43.9822 -107.4803 87° East 280 322 23,000  Level Salt Lake Center
Sun 12:29:56 PM 43.9856 -107.3725 88° East 282 325 23,000  Level Salt Lake Center
Sun 12:30:58 PM 43.9894 -107.2644 87° East 281 323 23,000  Level Salt Lake Center
Sun 12:32:00 PM 43.9953 -107.1544 86° East 285 328 23,000  Level Salt Lake Center
Sun 12:32:54 PM 43.9978 -107.0689 88° East 278 320 23,000  Level Denver Center
Sun 12:34:09 PM 44.0017 -106.9406 88° East 277 319 23,000  Level Denver Center
Sun 12:35:07 PM 44.0064 -106.8111 87° East 282 325 23,000  Level Salt Lake Center
Sun 12:36:09 PM 44.0092 -106.7042 88° East 280 322 23,000  Level Salt Lake Center
Sun 12:37:11 PM 44.0125 -106.5964 88° East 280 322 23,000  Level Salt Lake Center
Sun 12:38:13 PM 44.0153 -106.4872 88° East 283 326 23,000  Level Salt Lake Center
Sun 12:39:15 PM 44.0192 -106.3556 88° East 286 329 23,000  Level Salt Lake Center
Sun 12:40:17 PM 44.0153 -106.2472 93° East 285 328 23,000  Level Salt Lake Center
Sun 12:41:19 PM 44.0058 -106.1458 97° East 283 326 23,000  Level Salt Lake Center
Sun 12:42:21 PM 43.9933 -106.0261 98° East 281 323 23,000  Level Salt Lake Center
Sun 12:43:23 PM 43.9828 -105.9211 98° East 284 327 23,000  Level Salt Lake Center
Sun 12:44:25 PM 43.9706 -105.8031 98° East 280 322 23,000  Level Salt Lake Center
Sun 12:45:27 PM 43.9619 -105.6978 96° East 283 326 23,000  Level Salt Lake Center
Sun 12:46:29 PM 43.9506 -105.5800 98° East 278 320 23,000  Level Salt Lake Center
Sun 12:47:31 PM 43.9414 -105.4775 97° East 279 321 23,000  Level Salt Lake Center
Sun 12:48:38 PM 43.9292 -105.3592 98° East 280 322 23,000  Level Denver Center
Sun 12:49:41 PM 43.9194 -105.2431 97° East 274 315 23,000  Level Denver Center
Sun 12:50:43 PM 43.9103 -105.1411 97° East 277 319 23,000  Level Denver Center
Sun 12:51:45 PM 43.8989 -105.0253 98° East 274 315 23,000  Level Denver Center
Sun 12:52:47 PM 43.8906 -104.9256 97° East 271 312 23,000  Level Denver Center
Sun 12:54:01 PM 43.8917 -104.8064 89° East 276 318 23,000  Level Denver Center
Sun 12:55:03 PM 43.8958 -104.6878 87° East 277 319 23,000  Level Denver Center
Sun 12:56:05 PM 43.8978 -104.5678 89° East 277 319 23,000  Level Denver Center
Sun 12:57:07 PM 43.9003 -104.4656 88° East 277 319 23,000  Level Denver Center
Sun 12:58:10 PM 43.9022 -104.3486 89° East 276 318 23,000  Level Denver Center
Sun 12:59:12 PM 43.9047 -104.2494 88° East 272 313 23,000  Level Denver Center
Sun 01:00:14 PM 43.9072 -104.1319 88° East 272 313 23,000  Level Denver Center
Sun 01:01:16 PM 43.9075 -104.0272 90° East 279 321 23,000  Level Denver Center
Sun 01:02:18 PM 43.9092 -103.9053 89° East 282 325 23,000  Level Denver Center
Sun 01:03:32 PM 43.9108 -103.8042 89° East 279 321 23,000  Level Denver Center
Sun 01:04:34 PM 43.9128 -103.6681 89° East 277 319 23,000  Level Denver Center
Sun 01:05:36 PM 43.9150 -103.5833 88° East 277 319 23,000  Level Denver Center
Sun 01:06:38 PM 43.9156 -103.4444 90° East 280 322 23,000  Level Denver Center
Sun 01:07:41 PM 43.9161 -103.3436 90° East 277 319 23,000  Level Denver Center
Sun 01:08:43 PM 43.9175 -103.2272 89° East 273 314 23,000  Level Denver Center
Sun 01:09:45 PM 43.9175 -103.1264 90° East 272 313 23,000  Level Denver Center
Sun 01:10:59 PM 43.9203 -103.0111 88° East 270 311 23,000  Level Denver Center
Sun 01:12:01 PM 43.9197 -102.8914 90° East 273 314 23,000  Level Denver Center
Sun 01:13:03 PM 43.9197 -102.7722 90° East 273 314 23,000  Level Denver Center
Sun 01:14:05 PM 43.9197 -102.6658 90° East 275 316 23,000  Level Denver Center
Sun 01:15:07 PM 43.9203 -102.5586 90° East 277 319 23,000  Level Denver Center
Sun 01:16:09 PM 43.9194 -102.4511 91° East 279 321 23,000  Level Denver Center
Sun 01:17:12 PM 43.9186 -102.3431 91° East 280 322 23,000  Level Denver Center
Sun 01:18:14 PM 43.9156 -102.2344 92° East 281 323 23,000  Level Denver Center
Sun 01:19:16 PM 43.9156 -102.1061 90° East 279 321 23,000  Level Denver Center
Sun 01:20:18 PM 43.9158 -102.0008 90° East 276 318 23,000  Level Denver Center
Sun 01:21:20 PM 43.9150 -101.8950 91° East 275 316 23,000  Level Denver Center
Sun 01:22:22 PM 43.9142 -101.7881 91° East 276 318 23,000  Level Denver Center
Sun 01:23:24 PM 43.9133 -101.6828 91° East 275 316 23,000  Level Denver Center
Sun 01:24:26 PM 43.9156 -101.5794 88° East 271 312 23,000  Level Denver Center
Sun 01:25:28 PM 43.9147 -101.4544 90° East 273 314 23,000  Level Denver Center
Sun 01:26:26 PM 43.9136 -101.3711 91° East 274 315 23,000  Level Minneapolis Center
Sun 01:27:28 PM 43.9131 -101.2456 90° East 273 314 23,000  Level Minneapolis Center
Sun 01:28:30 PM 43.9117 -101.1422 91° East 272 313 23,000  Level Minneapolis Center
Sun 01:29:32 PM 43.9097 -101.0392 91° East 270 311 23,000  Level Minneapolis Center
Sun 01:30:34 PM 43.9106 -100.9386 89° East 267 307 23,000  Level Minneapolis Center
Sun 01:31:36 PM 43.9092 -100.8353 91° East 269 310 23,000  Level Minneapolis Center
Sun 01:32:38 PM 43.9081 -100.7331 91° East 266 306 23,000  Level Minneapolis Center
Sun 01:33:40 PM 43.9053 -100.6094 92° East 268 308 23,000  Level Minneapolis Center
Sun 01:34:42 PM 43.9047 -100.5067 90° East 268 308 23,000  Level Minneapolis Center
Sun 01:35:44 PM 43.9019 -100.4008 92° East 272 313 23,000  Level Minneapolis Center
Sun 01:36:46 PM 43.9006 -100.2953 91° East 274 315 23,000  Level Minneapolis Center
Sun 01:37:48 PM 43.8983 -100.1933 92° East 271 312 23,000  Level Minneapolis Center
Sun 01:38:50 PM 43.8964 -100.0872 91° East 273 314 23,000  Level Minneapolis Center
Sun 01:40:05 PM 43.8944 -99.9433 91° East 271 312 23,000  Level Minneapolis Center
Sun 01:41:07 PM 43.8917 -99.8414 92° East 268 308 23,000  Level Minneapolis Center
Sun 01:42:09 PM 43.8892 -99.7389 92° East 267 307 23,000  Level Minneapolis Center
Sun 01:43:11 PM 43.8869 -99.6367 92° East 267 307 23,000  Level Minneapolis Center
Sun 01:44:13 PM 43.8850 -99.5344 91° East 267 307 23,000  Level Minneapolis Center
Sun 01:45:15 PM 43.8819 -99.4317 92° East 268 308 23,000  Level Minneapolis Center
Sun 01:46:17 PM 43.8789 -99.3092 92° East 266 306 23,000  Level Minneapolis Center
Sun 01:47:19 PM 43.8772 -99.2053 91° East 269 310 23,000  Level Minneapolis Center
Sun 01:48:21 PM 43.8742 -99.1025 92° East 268 308 23,000  Level Minneapolis Center
Sun 01:49:24 PM 43.8711 -98.9997 92° East 268 308 23,000  Level Minneapolis Center
Sun 01:50:26 PM 43.8675 -98.8958 93° East 271 312 23,000  Level Minneapolis Center
Sun 01:51:28 PM 43.8642 -98.7733 92° East 267 307 23,000  Level Minneapolis Center
Sun 01:52:30 PM 43.8608 -98.6683 92° East 267 307 23,000  Level Minneapolis Center
Sun 01:53:32 PM 43.8572 -98.5675 93° East 265 305 23,000  Level Minneapolis Center
Sun 01:54:34 PM 43.8539 -98.4686 93° East 260 299 23,000  Level Minneapolis Center
Sun 01:55:36 PM 43.8417 -98.3708 100° East 262 302 23,000  Level Minneapolis Center
Sun 01:56:38 PM 43.8211 -98.2769 107° East 257 296 23,000  Level Minneapolis Center
Sun 01:57:40 PM 43.8000 -98.1828 107° East 257 296 23,000  Level Minneapolis Center
Sun 01:58:42 PM 43.7742 -98.0719 108° East 254 292 23,000  Level Minneapolis Center
Sun 01:59:44 PM 43.7522 -97.9778 108° East 256 295 23,000  Level Minneapolis Center
Sun 02:00:46 PM 43.7314 -97.8844 107° East 256 295 23,000  Level Minneapolis Center
Sun 02:01:48 PM 43.7111 -97.7914 107° East 255 293 23,000  Level Minneapolis Center
Sun 02:02:50 PM 43.6892 -97.6986 108° East 256 295 23,000  Level Minneapolis Center
Sun 02:03:52 PM 43.6692 -97.6047 106° East 257 296 23,000  Level Minneapolis Center
Sun 02:04:54 PM 43.6428 -97.4917 108° East 259 298 23,000  Level Minneapolis Center
Sun 02:05:57 PM 43.6233 -97.3964 106° East 259 298 23,000  Level Minneapolis Center
Sun 02:06:59 PM 43.6078 -97.3014 103° East 256 295 23,000  Level Minneapolis Center
Sun 02:08:00 PM 43.6054 -97.1982 110° East  Level Estimated
Sun 02:09:03 PM 43.5736 -97.1133 110° East 255 293 23,000  Level Minneapolis Center
Sun 02:10:05 PM 43.5539 -96.9994 103° East 256 295 23,000  Level Minneapolis Center
Sun 02:11:07 PM 43.5372 -96.9050 104° East 256 295 23,000  Level Minneapolis Center
Sun 02:12:09 PM 43.5181 -96.8111 106° East 256 295 23,000  Level Minneapolis Center
Sun 02:13:11 PM 43.4997 -96.7175 105° East 255 293 23,000  Level Minneapolis Center
Sun 02:14:13 PM 43.4811 -96.6242 105° East 255 293 23,000  Level Minneapolis Center
Sun 02:15:15 PM 43.4606 -96.5122 104° East 254 292 23,000  Level Minneapolis Center
Sun 02:16:17 PM 43.4556 -96.4194 94° East 248 285 23,000  Level Minneapolis Center
Sun 02:17:20 PM 43.4569 -96.3236 89° East 251 289 23,000  Level Minneapolis Center
Sun 02:18:22 PM 43.4544 -96.2294 92° East 250 288 23,000  Level Minneapolis Center
Sun 02:19:24 PM 43.4539 -96.1333 90° East 252 290 23,000  Level Minneapolis Center
Sun 02:20:26 PM 43.4519 -96.0361 92° East 254 292 23,000  Level Minneapolis Center
Sun 02:21:28 PM 43.4508 -95.9200 91° East 255 293 23,000  Level Minneapolis Center
Sun 02:23:32 PM 43.4467 -95.7278 92° East 252 290 23,000  Level Minneapolis Center
Sun 02:24:34 PM 43.4444 -95.6303 92° East 255 293 23,000  Level Minneapolis Center
Sun 02:25:36 PM 43.4422 -95.5344 92° East 254 292 23,000  Level Minneapolis Center
Sun 02:26:38 PM 43.4392 -95.4178 92° East 254 292 23,000  Level Minneapolis Center
Sun 02:27:40 PM 43.4364 -95.3203 92° East 256 295 23,000  Level Minneapolis Center
Sun 02:28:42 PM 43.4344 -95.2231 92° East 256 295 23,000  Level Minneapolis Center
Sun 02:29:44 PM 43.4314 -95.1239 92° East 260 299 23,000  Level Minneapolis Center
Sun 02:30:47 PM 43.4292 -95.0281 92° East 255 293 23,000  Level Minneapolis Center
Sun 02:31:49 PM 43.4267 -94.9308 92° East 256 295 23,000  Level Minneapolis Center
Sun 02:32:51 PM 43.4236 -94.8136 92° East 256 295 23,000  Level Minneapolis Center
Sun 02:33:53 PM 43.4197 -94.7172 93° East 255 293 23,000  Level Minneapolis Center
Sun 02:34:55 PM 43.4169 -94.6192 92° East 257 296 23,000  Level Minneapolis Center
Sun 02:35:57 PM 43.4142 -94.5217 92° East 257 296 23,000  Level Minneapolis Center
Sun 02:36:59 PM 43.4108 -94.4253 93° East 255 293 23,000  Level Minneapolis Center
Sun 02:38:01 PM 43.4069 -94.3089 93° East 254 292 23,000  Level Minneapolis Center
Sun 02:39:03 PM 43.4036 -94.2206 93° East 254 292 23,000  Level Minneapolis Center
Sun 02:40:05 PM 43.4008 -94.1247 92° East 254 292 23,000  Level Minneapolis Center
Sun 02:41:07 PM 43.3969 -94.0283 93° East 254 292 23,000  Level Minneapolis Center
Sun 02:42:09 PM 43.3928 -93.9122 93° East 255 293 23,000  Level Minneapolis Center
Sun 02:43:11 PM 43.3889 -93.8172 93° East 253 291 23,000  Level Minneapolis Center
Sun 02:44:13 PM 43.3856 -93.7206 93° East 254 292 23,000  Level Minneapolis Center
Sun 02:45:15 PM 43.3825 -93.6261 93° East 252 290 23,000  Level Minneapolis Center
Sun 02:46:18 PM 43.3781 -93.5303 94° East 252 290 23,000  Level Minneapolis Center
Sun 02:47:20 PM 43.3742 -93.4175 93° East 250 288 23,000  Level Minneapolis Center
Sun 02:48:22 PM 43.3686 -93.3233 95° East 250 288 23,000  Level Minneapolis Center
Sun 02:49:24 PM 43.3653 -93.2278 93° East 251 289 23,000  Level Minneapolis Center
Sun 02:50:26 PM 43.3614 -93.1322 93° East 252 290 23,000  Level Minneapolis Center
Sun 02:51:28 PM 43.3569 -93.0372 94° East 251 289 23,000  Level Minneapolis Center
Sun 02:52:30 PM 43.3522 -92.9222 93° East 253 291 23,000  Level Minneapolis Center
Sun 02:53:32 PM 43.3475 -92.8272 94° East 252 290 23,000  Level Minneapolis Center
Sun 02:54:34 PM 43.3431 -92.7325 94° East 250 288 23,000  Level Minneapolis Center
Sun 02:55:36 PM 43.3375 -92.6386 95° East 249 287 23,000  Level Minneapolis Center
Sun 02:56:38 PM 43.3339 -92.5447 93° East 248 285 23,000  Level Minneapolis Center
Sun 02:57:40 PM 43.3283 -92.4344 94° East 245 282 23,000  Level Minneapolis Center
Sun 02:58:42 PM 43.3236 -92.3417 94° East 244 281 23,000  Level Minneapolis Center
Sun 02:59:44 PM 43.3197 -92.2497 93° East 244 281 23,000  Level Minneapolis Center
Sun 03:00:46 PM 43.3147 -92.1578 94° East 243 280 23,000  Level Minneapolis Center
Sun 03:01:49 PM 43.3094 -92.0642 94° East 247 284 23,000  Level Minneapolis Center
Sun 03:02:51 PM 43.3039 -91.9525 94° East 246 283 23,000  Level Minneapolis Center
Sun 03:03:53 PM 43.2992 -91.8583 94° East 248 285 23,000  Level Minneapolis Center
Sun 03:05:07 PM 43.2939 -91.7664 94° East 245 282 23,000  Level Minneapolis Center
Sun 03:06:09 PM 43.2875 -91.6539 94° East 247 284 23,000  Level Minneapolis Center
Sun 03:07:11 PM 43.2858 -91.5600 91° East 247 284 23,000  Level Minneapolis Center
Sun 03:08:13 PM 43.2825 -91.4483 92° East 246 283 23,000  Level Minneapolis Center
Sun 03:09:15 PM 43.2786 -91.3553 93° East 246 283 23,000  Level Minneapolis Center
Sun 03:10:04 PM 43.2753 -91.2825 94° East 247 284 23,000  Level Chicago Center
Sun 03:11:06 PM 43.2717 -91.1906 93° East 244 281 23,000  Level Chicago Center
Sun 03:12:08 PM 43.2675 -91.0964 93° East 247 284 23,000  Level Chicago Center
Sun 03:13:11 PM 43.2636 -91.0025 93° East 247 284 23,000  Level Chicago Center
Sun 03:14:13 PM 43.2583 -90.8900 94° East 248 285 23,000  Level Chicago Center
Sun 03:15:15 PM 43.2542 -90.7947 93° East 251 289 23,000  Level Chicago Center
Sun 03:16:17 PM 43.2494 -90.7000 94° East 252 290 23,000  Level Chicago Center
Sun 03:17:19 PM 43.2450 -90.6056 94° East 251 289 23,000  Level Chicago Center
Sun 03:18:21 PM 43.2419 -90.5114 93° East 249 287 23,000 -532 Level Chicago Center
Sun 03:19:23 PM 43.2356 -90.3914 94° East 267 307 21,900 -919 Descending Chicago Center
Sun 03:20:25 PM 43.2317 -90.2856 93° East 278 320 21,100 -871 Descending Chicago Center
Sun 03:21:27 PM 43.2247 -90.1672 95° East 282 325 20,100 -912 Descending Chicago Center
Sun 03:22:30 PM 43.2194 -90.0606 94° East 281 323 19,200 -816 Descending Chicago Center
Sun 03:23:32 PM 43.2133 -89.9542 94° East 280 322 18,400 -677 Descending Chicago Center
Sun 03:24:34 PM 43.2083 -89.8472 94° East 279 321 17,800 -677 Descending Chicago Center
Sun 03:25:36 PM 43.2031 -89.7414 94° East 278 320 17,000 -919 Descending Chicago Center
Sun 03:26:38 PM 43.1972 -89.6194 94° East 274 315 15,900 -919 Descending Chicago Center
Sun 03:27:40 PM 43.1903 -89.5161 95° East 273 314 15,100 -823 Descending Chicago Center
Sun 03:28:42 PM 43.1853 -89.4136 94° East 271 312 14,200 -871 Descending Chicago Center
Sun 03:29:44 PM 43.1794 -89.3103 94° East 271 312 13,300 -871 Descending Chicago Center
Sun 03:30:46 PM 43.1733 -89.2097 95° East 266 306 12,400 -968 Descending Chicago Center
Sun 03:31:48 PM 43.1678 -89.1008 94° East 249 287 11,300 -1,355 Descending Chicago Center
Sun 03:32:50 PM 43.1622 -89.0122 95° East 237 273 9,600 -1,742 Descending Chicago Center
Sun 03:33:52 PM 43.1575 -88.9292 94° East 223 257 7,700 -1,597 Descending Chicago Center
Sun 03:34:54 PM 43.1525 -88.8539 95° East 210 242 6,300 -1,248 Descending Chicago Center
Sun 03:35:57 PM 43.1486 -88.7789 94° East 201 231 5,100 -864 Descending Chicago Center
Sun 03:36:59 PM 43.1417 -88.6758 95° East 221 254 4,500 -726 Descending Chicago Center
Sun 03:38:01 PM 43.1353 -88.5967 96° East 219 252 3,600 -871 Descending Chicago Center
Sun 03:39:03 PM 43.1147 -88.5328 114° Southeast 196 226 2,700 -435 Descending Chicago Center
Sun 03:40:05 PM 43.0850 -88.4875 132° Southeast 172 198 2,700  Level Chicago Center
Sun 03:41:07 PM 43.0717 -88.4300 108° East 164 189 2,700 -48 Level Chicago Center
Sun 03:42:09 PM 43.0608 -88.3625 102° East 160 184 2,600 -435 Descending Chicago Center
Sun 03:43:11 PM 43.0539 -88.3153 101° East 142 163 1,800 -581 Descending Chicago Center
Sun 03:44:13 PM 43.0461 -88.2656 102° East 131 151 1,400 -387 Descending Chicago Center
Sun 03:46:00 PM 43.0333 -88.2333 160° South  Level FlightAware Approximate

Login

Don't have an account? Register now (free) for customized features, flight alerts, and more!